sensor_id;sensor_type;location;lat;lon;timestamp;pressure;altitude;pressure_sealevel;temperature;humidity
57656;BME280;43482;53.334;6.744;2022-09-09T00:02:21;100726.16;;;14.32;100.00
57656;BME280;43482;53.334;6.744;2022-09-09T00:07:43;100733.91;;;14.19;100.00
57656;BME280;43482;53.334;6.744;2022-09-09T00:10:28;100731.25;;;14.19;100.00
57656;BME280;43482;53.334;6.744;2022-09-09T00:12:57;100723.66;;;14.16;100.00
57656;BME280;43482;53.334;6.744;2022-09-09T00:15:34;100712.06;;;14.09;100.00
57656;BME280;43482;53.334;6.744;2022-09-09T00:18:10;100707.81;;;13.99;100.00
57656;BME280;43482;53.334;6.744;2022-09-09T00:20:53;100712.97;;;14.01;100.00
57656;BME280;43482;53.334;6.744;2022-09-09T00:26:02;100715.13;;;13.97;100.00
57656;BME280;43482;53.334;6.744;2022-09-09T00:28:30;100719.13;;;13.93;100.00
57656;BME280;43482;53.334;6.744;2022-09-09T00:31:12;100713.22;;;13.83;100.00
57656;BME280;43482;53.334;6.744;2022-09-09T00:33:37;100713.56;;;13.80;100.00
57656;BME280;43482;53.334;6.744;2022-09-09T00:36:11;100693.44;;;13.63;100.00
57656;BME280;43482;53.334;6.744;2022-09-09T00:39:05;100705.03;;;13.70;100.00
57656;BME280;43482;53.334;6.744;2022-09-09T00:44:36;100701.88;;;13.66;100.00
57656;BME280;43482;53.334;6.744;2022-09-09T00:52:16;100722.97;;;13.60;100.00
57656;BME280;43482;53.334;6.744;2022-09-09T00:57:32;100677.81;;;13.36;100.00
57656;BME280;43482;53.334;6.744;2022-09-09T01:06:12;100702.13;;;13.48;100.00
57656;BME280;43482;53.334;6.744;2022-09-09T01:11:21;100699.50;;;13.48;100.00
57656;BME280;43482;53.334;6.744;2022-09-09T01:13:54;100679.13;;;13.41;100.00
57656;BME280;43482;53.334;6.744;2022-09-09T01:16:24;100673.66;;;13.42;100.00
57656;BME280;43482;53.334;6.744;2022-09-09T01:18:52;100693.16;;;13.49;100.00
57656;BME280;43482;53.334;6.744;2022-09-09T01:21:35;100683.91;;;13.45;100.00
57656;BME280;43482;53.334;6.744;2022-09-09T01:24:24;100691.91;;;13.37;100.00
57656;BME280;43482;53.334;6.744;2022-09-09T01:26:54;100686.28;;;13.32;100.00
57656;BME280;43482;53.334;6.744;2022-09-09T01:29:22;100668.25;;;13.19;100.00
57656;BME280;43482;53.334;6.744;2022-09-09T01:31:58;100684.28;;;13.26;100.00
57656;BME280;43482;53.334;6.744;2022-09-09T01:34:36;100676.19;;;13.19;100.00
57656;BME280;43482;53.334;6.744;2022-09-09T01:37:10;100655.88;;;13.11;100.00
57656;BME280;43482;53.334;6.744;2022-09-09T01:39:39;100678.38;;;13.15;100.00
57656;BME280;43482;53.334;6.744;2022-09-09T01:42:08;100669.78;;;13.05;100.00
57656;BME280;43482;53.334;6.744;2022-09-09T01:44:34;100680.03;;;13.08;100.00
57656;BME280;43482;53.334;6.744;2022-09-09T01:47:01;100683.03;;;13.05;100.00
57656;BME280;43482;53.334;6.744;2022-09-09T01:49:27;100676.41;;;13.09;100.00
57656;BME280;43482;53.334;6.744;2022-09-09T01:51:54;100676.72;;;13.06;100.00
57656;BME280;43482;53.334;6.744;2022-09-09T01:54:22;100657.56;;;12.96;100.00
57656;BME280;43482;53.334;6.744;2022-09-09T02:00:02;100673.47;;;12.96;100.00
57656;BME280;43482;53.334;6.744;2022-09-09T02:05:17;100674.47;;;12.87;100.00
57656;BME280;43482;53.334;6.744;2022-09-09T02:07:48;100677.78;;;12.89;100.00
57656;BME280;43482;53.334;6.744;2022-09-09T02:10:24;100668.53;;;12.85;100.00
57656;BME280;43482;53.334;6.744;2022-09-09T02:13:10;100677.31;;;12.85;100.00
57656;BME280;43482;53.334;6.744;2022-09-09T02:15:40;100675.97;;;12.81;100.00
57656;BME280;43482;53.334;6.744;2022-09-09T02:18:10;100679.81;;;12.79;100.00
57656;BME280;43482;53.334;6.744;2022-09-09T02:20:38;100678.63;;;12.73;100.00
57656;BME280;43482;53.334;6.744;2022-09-09T02:23:04;100688.41;;;12.81;100.00
57656;BME280;43482;53.334;6.744;2022-09-09T02:25:30;100687.91;;;12.85;100.00
57656;BME280;43482;53.334;6.744;2022-09-09T02:27:56;100696.00;;;12.84;100.00
57656;BME280;43482;53.334;6.744;2022-09-09T02:30:27;100684.59;;;12.83;100.00
57656;BME280;43482;53.334;6.744;2022-09-09T02:32:56;100687.72;;;12.87;100.00
57656;BME280;43482;53.334;6.744;2022-09-09T02:35:24;100668.56;;;12.76;100.00
57656;BME280;43482;53.334;6.744;2022-09-09T02:37:54;100658.97;;;12.67;100.00
57656;BME280;43482;53.334;6.744;2022-09-09T02:40:21;100670.03;;;12.71;100.00
57656;BME280;43482;53.334;6.744;2022-09-09T02:42:47;100677.47;;;12.75;100.00
57656;BME280;43482;53.334;6.744;2022-09-09T02:45:19;100681.59;;;12.78;100.00
57656;BME280;43482;53.334;6.744;2022-09-09T02:51:10;100678.94;;;12.86;100.00
57656;BME280;43482;53.334;6.744;2022-09-09T02:54:06;100676.63;;;12.91;100.00
57656;BME280;43482;53.334;6.744;2022-09-09T02:56:39;100670.84;;;12.88;100.00
57656;BME280;43482;53.334;6.744;2022-09-09T02:59:06;100664.88;;;12.86;100.00
57656;BME280;43482;53.334;6.744;2022-09-09T03:01:32;100683.72;;;12.99;100.00
57656;BME280;43482;53.334;6.744;2022-09-09T03:03:57;100679.25;;;13.00;100.00
57656;BME280;43482;53.334;6.744;2022-09-09T03:06:23;100681.41;;;12.96;100.00
57656;BME280;43482;53.334;6.744;2022-09-09T03:08:48;100679.94;;;12.93;100.00
57656;BME280;43482;53.334;6.744;2022-09-09T03:11:15;100674.63;;;12.93;100.00
57656;BME280;43482;53.334;6.744;2022-09-09T03:13:41;100657.28;;;12.83;100.00
57656;BME280;43482;53.334;6.744;2022-09-09T03:16:06;100663.56;;;12.90;100.00
57656;BME280;43482;53.334;6.744;2022-09-09T03:18:32;100664.03;;;12.93;100.00
57656;BME280;43482;53.334;6.744;2022-09-09T03:20:57;100670.81;;;12.96;100.00
57656;BME280;43482;53.334;6.744;2022-09-09T03:23:23;100662.88;;;12.96;100.00
57656;BME280;43482;53.334;6.744;2022-09-09T03:25:49;100666.66;;;13.02;100.00
57656;BME280;43482;53.334;6.744;2022-09-09T03:28:15;100674.94;;;13.07;100.00
57656;BME280;43482;53.334;6.744;2022-09-09T03:30:40;100668.47;;;13.09;100.00
57656;BME280;43482;53.334;6.744;2022-09-09T03:33:06;100658.69;;;13.10;100.00
57656;BME280;43482;53.334;6.744;2022-09-09T03:35:31;100660.50;;;13.17;100.00
57656;BME280;43482;53.334;6.744;2022-09-09T03:37:56;100675.69;;;13.32;100.00
57656;BME280;43482;53.334;6.744;2022-09-09T03:40:22;100672.72;;;13.35;100.00
57656;BME280;43482;53.334;6.744;2022-09-09T03:42:47;100660.44;;;13.26;100.00
57656;BME280;43482;53.334;6.744;2022-09-09T03:45:14;100677.00;;;13.36;100.00
57656;BME280;43482;53.334;6.744;2022-09-09T03:47:39;100678.00;;;13.35;100.00
57656;BME280;43482;53.334;6.744;2022-09-09T03:50:06;100680.31;;;13.38;100.00
57656;BME280;43482;53.334;6.744;2022-09-09T03:52:37;100682.94;;;13.38;100.00
57656;BME280;43482;53.334;6.744;2022-09-09T03:55:04;100655.31;;;13.24;100.00
57656;BME280;43482;53.334;6.744;2022-09-09T03:57:30;100677.28;;;13.41;100.00
57656;BME280;43482;53.334;6.744;2022-09-09T03:59:55;100678.97;;;13.42;100.00
57656;BME280;43482;53.334;6.744;2022-09-09T04:02:21;100673.31;;;13.45;100.00
57656;BME280;43482;53.334;6.744;2022-09-09T04:04:46;100682.28;;;13.44;100.00
57656;BME280;43482;53.334;6.744;2022-09-09T04:07:12;100671.34;;;13.39;100.00
57656;BME280;43482;53.334;6.744;2022-09-09T04:09:38;100681.91;;;13.47;100.00
57656;BME280;43482;53.334;6.744;2022-09-09T04:12:03;100681.59;;;13.50;100.00
57656;BME280;43482;53.334;6.744;2022-09-09T04:14:29;100678.56;;;13.53;100.00
57656;BME280;43482;53.334;6.744;2022-09-09T04:16:54;100677.88;;;13.60;100.00
57656;BME280;43482;53.334;6.744;2022-09-09T04:19:22;100663.31;;;13.55;100.00
57656;BME280;43482;53.334;6.744;2022-09-09T04:21:47;100667.94;;;13.62;100.00
57656;BME280;43482;53.334;6.744;2022-09-09T04:24:17;100668.59;;;13.64;100.00
57656;BME280;43482;53.334;6.744;2022-09-09T04:26:42;100670.88;;;13.67;100.00
57656;BME280;43482;53.334;6.744;2022-09-09T04:29:07;100673.00;;;13.71;100.00
57656;BME280;43482;53.334;6.744;2022-09-09T04:31:33;100686.09;;;13.73;100.00
57656;BME280;43482;53.334;6.744;2022-09-09T04:33:59;100691.22;;;13.74;100.00
57656;BME280;43482;53.334;6.744;2022-09-09T04:36:29;100689.03;;;13.78;100.00
57656;BME280;43482;53.334;6.744;2022-09-09T04:38:55;100695.66;;;13.82;100.00
57656;BME280;43482;53.334;6.744;2022-09-09T04:41:20;100682.44;;;13.74;100.00
57656;BME280;43482;53.334;6.744;2022-09-09T04:43:46;100667.78;;;13.63;100.00
57656;BME280;43482;53.334;6.744;2022-09-09T04:46:11;100706.38;;;13.89;100.00
57656;BME280;43482;53.334;6.744;2022-09-09T04:48:37;100694.97;;;13.88;100.00
57656;BME280;43482;53.334;6.744;2022-09-09T04:51:06;100697.44;;;13.90;100.00
57656;BME280;43482;53.334;6.744;2022-09-09T04:53:34;100697.91;;;13.93;100.00
57656;BME280;43482;53.334;6.744;2022-09-09T04:56:08;100695.91;;;13.95;100.00
57656;BME280;43482;53.334;6.744;2022-09-09T04:58:36;100690.44;;;13.97;100.00
57656;BME280;43482;53.334;6.744;2022-09-09T05:01:22;100695.19;;;14.02;100.00
57656;BME280;43482;53.334;6.744;2022-09-09T05:03:48;100686.94;;;13.96;100.00
57656;BME280;43482;53.334;6.744;2022-09-09T05:06:17;100682.81;;;13.94;100.00
57656;BME280;43482;53.334;6.744;2022-09-09T05:08:43;100697.19;;;13.99;100.00
57656;BME280;43482;53.334;6.744;2022-09-09T05:11:23;100689.44;;;13.98;100.00
57656;BME280;43482;53.334;6.744;2022-09-09T05:13:50;100700.22;;;13.96;100.00
57656;BME280;43482;53.334;6.744;2022-09-09T05:16:16;100685.00;;;13.90;100.00
57656;BME280;43482;53.334;6.744;2022-09-09T05:18:42;100686.63;;;13.91;100.00
57656;BME280;43482;53.334;6.744;2022-09-09T05:21:08;100691.31;;;13.89;100.00
57656;BME280;43482;53.334;6.744;2022-09-09T05:23:34;100687.13;;;13.95;100.00
57656;BME280;43482;53.334;6.744;2022-09-09T05:26:00;100689.28;;;13.91;100.00
57656;BME280;43482;53.334;6.744;2022-09-09T05:28:27;100694.31;;;13.86;100.00
57656;BME280;43482;53.334;6.744;2022-09-09T05:31:01;100698.97;;;13.84;100.00
57656;BME280;43482;53.334;6.744;2022-09-09T05:33:29;100704.31;;;13.76;100.00
57656;BME280;43482;53.334;6.744;2022-09-09T05:35:56;100704.31;;;13.76;100.00
57656;BME280;43482;53.334;6.744;2022-09-09T05:38:21;100703.31;;;13.77;100.00
57656;BME280;43482;53.334;6.744;2022-09-09T05:40:49;100677.41;;;13.56;100.00
57656;BME280;43482;53.334;6.744;2022-09-09T05:43:15;100708.50;;;13.70;100.00
57656;BME280;43482;53.334;6.744;2022-09-09T05:45:40;100704.53;;;13.66;100.00
57656;BME280;43482;53.334;6.744;2022-09-09T05:48:05;100710.31;;;13.70;100.00
57656;BME280;43482;53.334;6.744;2022-09-09T05:50:32;100718.56;;;13.75;100.00
57656;BME280;43482;53.334;6.744;2022-09-09T05:52:57;100712.63;;;13.73;100.00
57656;BME280;43482;53.334;6.744;2022-09-09T05:55:23;100723.59;;;13.70;100.00
57656;BME280;43482;53.334;6.744;2022-09-09T05:57:48;100708.00;;;13.67;100.00
57656;BME280;43482;53.334;6.744;2022-09-09T06:00:14;100708.38;;;13.64;100.00
57656;BME280;43482;53.334;6.744;2022-09-09T06:02:41;100714.97;;;13.68;100.00
57656;BME280;43482;53.334;6.744;2022-09-09T06:05:06;100713.16;;;13.68;100.00
57656;BME280;43482;53.334;6.744;2022-09-09T06:07:33;100722.03;;;13.75;100.00
57656;BME280;43482;53.334;6.744;2022-09-09T06:09:58;100722.69;;;13.77;100.00
57656;BME280;43482;53.334;6.744;2022-09-09T06:12:25;100725.34;;;13.77;100.00
57656;BME280;43482;53.334;6.744;2022-09-09T06:14:51;100708.94;;;13.74;100.00
57656;BME280;43482;53.334;6.744;2022-09-09T06:17:16;100727.03;;;13.78;100.00
57656;BME280;43482;53.334;6.744;2022-09-09T06:19:42;100728.81;;;13.78;100.00
57656;BME280;43482;53.334;6.744;2022-09-09T06:22:07;100709.34;;;13.63;100.00
57656;BME280;43482;53.334;6.744;2022-09-09T06:24:34;100727.47;;;13.82;100.00
57656;BME280;43482;53.334;6.744;2022-09-09T06:27:00;100729.31;;;13.82;100.00
57656;BME280;43482;53.334;6.744;2022-09-09T06:29:25;100718.22;;;13.78;100.00
57656;BME280;43482;53.334;6.744;2022-09-09T06:31:50;100702.00;;;13.73;100.00
57656;BME280;43482;53.334;6.744;2022-09-09T06:34:16;100729.47;;;13.80;100.00
57656;BME280;43482;53.334;6.744;2022-09-09T06:36:41;100719.22;;;13.77;100.00
57656;BME280;43482;53.334;6.744;2022-09-09T06:39:07;100737.75;;;13.85;100.00
57656;BME280;43482;53.334;6.744;2022-09-09T06:41:36;100730.91;;;13.91;100.00
57656;BME280;43482;53.334;6.744;2022-09-09T06:44:02;100725.75;;;13.97;100.00
57656;BME280;43482;53.334;6.744;2022-09-09T06:46:30;100736.03;;;14.01;100.00
57656;BME280;43482;53.334;6.744;2022-09-09T06:48:57;100716.78;;;13.98;100.00
57656;BME280;43482;53.334;6.744;2022-09-09T06:51:33;100736.09;;;14.15;100.00
57656;BME280;43482;53.334;6.744;2022-09-09T06:54:00;100734.47;;;14.06;100.00
57656;BME280;43482;53.334;6.744;2022-09-09T06:56:34;100726.75;;;14.19;100.00
57656;BME280;43482;53.334;6.744;2022-09-09T06:59:04;100725.59;;;14.22;100.00
57656;BME280;43482;53.334;6.744;2022-09-09T07:01:33;100734.13;;;14.32;100.00
57656;BME280;43482;53.334;6.744;2022-09-09T07:03:59;100707.03;;;14.22;100.00
57656;BME280;43482;53.334;6.744;2022-09-09T07:06:27;100731.31;;;14.34;100.00
57656;BME280;43482;53.334;6.744;2022-09-09T07:08:54;100731.78;;;14.37;100.00
57656;BME280;43482;53.334;6.744;2022-09-09T07:11:21;100727.19;;;14.31;100.00
57656;BME280;43482;53.334;6.744;2022-09-09T07:13:48;100727.84;;;14.33;100.00
57656;BME280;43482;53.334;6.744;2022-09-09T07:16:16;100730.13;;;14.36;100.00
57656;BME280;43482;53.334;6.744;2022-09-09T07:18:42;100737.31;;;14.51;100.00
57656;BME280;43482;53.334;6.744;2022-09-09T07:21:10;100737.97;;;14.53;100.00
57656;BME280;43482;53.334;6.744;2022-09-09T07:23:37;100735.84;;;14.71;100.00
57656;BME280;43482;53.334;6.744;2022-09-09T07:26:10;100731.47;;;14.93;100.00
57656;BME280;43482;53.334;6.744;2022-09-09T07:28:36;100731.22;;;15.03;100.00
57656;BME280;43482;53.334;6.744;2022-09-09T07:31:02;100718.84;;;15.10;100.00
57656;BME280;43482;53.334;6.744;2022-09-09T07:33:29;100719.03;;;15.23;100.00
57656;BME280;43482;53.334;6.744;2022-09-09T07:39:03;100705.81;;;15.60;100.00
57656;BME280;43482;53.334;6.744;2022-09-09T07:41:33;100714.72;;;16.25;100.00
57656;BME280;43482;53.334;6.744;2022-09-09T07:43:59;100714.97;;;16.30;100.00
57656;BME280;43482;53.334;6.744;2022-09-09T07:46:26;100702.00;;;16.20;100.00
57656;BME280;43482;53.334;6.744;2022-09-09T07:48:53;100712.38;;;16.37;100.00
57656;BME280;43482;53.334;6.744;2022-09-09T07:51:23;100721.00;;;16.17;100.00
57656;BME280;43482;53.334;6.744;2022-09-09T07:53:54;100709.63;;;16.09;100.00
57656;BME280;43482;53.334;6.744;2022-09-09T07:56:20;100701.78;;;16.22;100.00
57656;BME280;43482;53.334;6.744;2022-09-09T07:58:49;100709.53;;;16.38;100.00
57656;BME280;43482;53.334;6.744;2022-09-09T08:01:22;100716.34;;;16.04;100.00
57656;BME280;43482;53.334;6.744;2022-09-09T08:06:19;100710.38;;;15.81;100.00
57656;BME280;43482;53.334;6.744;2022-09-09T08:08:49;100709.00;;;16.07;100.00
57656;BME280;43482;53.334;6.744;2022-09-09T08:11:15;100718.59;;;16.01;100.00
57656;BME280;43482;53.334;6.744;2022-09-09T08:13:42;100719.41;;;16.23;100.00
57656;BME280;43482;53.334;6.744;2022-09-09T08:16:11;100718.66;;;16.51;100.00
57656;BME280;43482;53.334;6.744;2022-09-09T08:18:37;100722.25;;;16.43;100.00
57656;BME280;43482;53.334;6.744;2022-09-09T08:21:15;100726.06;;;16.55;100.00
57656;BME280;43482;53.334;6.744;2022-09-09T08:23:44;100727.41;;;16.44;100.00
57656;BME280;43482;53.334;6.744;2022-09-09T08:26:14;100733.38;;;16.47;100.00
57656;BME280;43482;53.334;6.744;2022-09-09T08:28:41;100723.66;;;16.39;100.00
57656;BME280;43482;53.334;6.744;2022-09-09T08:33:37;100719.84;;;17.33;100.00
57656;BME280;43482;53.334;6.744;2022-09-09T08:36:05;100716.16;;;17.34;100.00
57656;BME280;43482;53.334;6.744;2022-09-09T08:38:30;100717.28;;;17.59;100.00
57656;BME280;43482;53.334;6.744;2022-09-09T08:41:27;100726.09;;;18.01;100.00
57656;BME280;43482;53.334;6.744;2022-09-09T08:44:01;100725.69;;;18.24;97.26
57656;BME280;43482;53.334;6.744;2022-09-09T08:46:42;100741.69;;;18.04;98.64
57656;BME280;43482;53.334;6.744;2022-09-09T08:49:30;100737.56;;;17.95;100.00
57656;BME280;43482;53.334;6.744;2022-09-09T08:52:01;100736.41;;;17.69;100.00
57656;BME280;43482;53.334;6.744;2022-09-09T08:54:32;100735.72;;;18.02;100.00
57656;BME280;43482;53.334;6.744;2022-09-09T08:56:58;100736.53;;;17.96;100.00
57656;BME280;43482;53.334;6.744;2022-09-09T08:59:24;100724.44;;;18.14;98.38
57656;BME280;43482;53.334;6.744;2022-09-09T09:02:14;100729.38;;;18.10;98.78
57656;BME280;43482;53.334;6.744;2022-09-09T09:10:35;100739.63;;;18.06;99.63
57656;BME280;43482;53.334;6.744;2022-09-09T09:13:11;100747.28;;;18.23;98.10
57656;BME280;43482;53.334;6.744;2022-09-09T09:15:38;100749.91;;;18.03;98.10
57656;BME280;43482;53.334;6.744;2022-09-09T09:18:08;100749.97;;;18.36;98.02
57656;BME280;43482;53.334;6.744;2022-09-09T09:21:04;100745.38;;;19.43;96.50
57656;BME280;43482;53.334;6.744;2022-09-09T09:23:59;100754.66;;;20.31;88.33
57656;BME280;43482;53.334;6.744;2022-09-09T09:26:34;100756.78;;;18.99;91.24
57656;BME280;43482;53.334;6.744;2022-09-09T09:29:09;100745.47;;;18.90;93.63
57656;BME280;43482;53.334;6.744;2022-09-09T09:31:35;100742.97;;;18.48;94.90
57656;BME280;43482;53.334;6.744;2022-09-09T09:34:00;100733.88;;;18.03;97.06
57656;BME280;43482;53.334;6.744;2022-09-09T09:36:45;100750.56;;;17.70;98.16
57656;BME280;43482;53.334;6.744;2022-09-09T09:39:25;100748.53;;;17.72;100.00
57656;BME280;43482;53.334;6.744;2022-09-09T09:41:51;100754.47;;;17.67;100.00
57656;BME280;43482;53.334;6.744;2022-09-09T09:44:31;100739.00;;;17.50;100.00
57656;BME280;43482;53.334;6.744;2022-09-09T09:47:12;100752.03;;;18.54;100.00
57656;BME280;43482;53.334;6.744;2022-09-09T09:49:39;100752.88;;;19.15;95.60
57656;BME280;43482;53.334;6.744;2022-09-09T09:52:05;100759.47;;;18.85;94.87
57656;BME280;43482;53.334;6.744;2022-09-09T09:54:41;100755.75;;;19.13;95.15
57656;BME280;43482;53.334;6.744;2022-09-09T09:57:09;100761.81;;;19.53;92.91
57656;BME280;43482;53.334;6.744;2022-09-09T09:59:36;100757.25;;;19.61;91.56
57656;BME280;43482;53.334;6.744;2022-09-09T10:02:21;100766.09;;;21.02;89.80
57656;BME280;43482;53.334;6.744;2022-09-09T10:05:22;100763.47;;;21.75;84.08
57656;BME280;43482;53.334;6.744;2022-09-09T10:07:47;100762.34;;;20.84;85.36
57656;BME280;43482;53.334;6.744;2022-09-09T10:10:34;100759.41;;;20.29;87.61
57656;BME280;43482;53.334;6.744;2022-09-09T10:13:18;100753.69;;;20.82;88.25
57656;BME280;43482;53.334;6.744;2022-09-09T10:16:13;100753.84;;;19.92;87.37
57656;BME280;43482;53.334;6.744;2022-09-09T10:22:25;100774.84;;;21.34;81.81
57656;BME280;43482;53.334;6.744;2022-09-09T10:30:49;100767.19;;;20.37;84.62
57656;BME280;43482;53.334;6.744;2022-09-09T10:33:31;100770.59;;;19.81;87.52
57656;BME280;43482;53.334;6.744;2022-09-09T10:36:25;100749.09;;;19.36;89.31
57656;BME280;43482;53.334;6.744;2022-09-09T10:39:05;100774.78;;;19.50;89.37
57656;BME280;43482;53.334;6.744;2022-09-09T10:41:40;100759.09;;;19.67;90.32
57656;BME280;43482;53.334;6.744;2022-09-09T10:47:53;100763.09;;;20.34;86.54
57656;BME280;43482;53.334;6.744;2022-09-09T10:50:45;100756.59;;;20.17;88.83
57656;BME280;43482;53.334;6.744;2022-09-09T10:56:09;100741.41;;;20.68;82.82
57656;BME280;43482;53.334;6.744;2022-09-09T10:58:46;100735.72;;;20.58;83.63
57656;BME280;43482;53.334;6.744;2022-09-09T11:01:22;100748.91;;;21.28;80.81
57656;BME280;43482;53.334;6.744;2022-09-09T11:03:59;100751.47;;;20.98;80.95
57656;BME280;43482;53.334;6.744;2022-09-09T11:06:39;100761.88;;;21.68;79.52
57656;BME280;43482;53.334;6.744;2022-09-09T11:09:17;100741.97;;;21.39;78.47
57656;BME280;43482;53.334;6.744;2022-09-09T11:11:54;100765.94;;;21.59;78.23
57656;BME280;43482;53.334;6.744;2022-09-09T11:14:40;100746.09;;;22.20;75.49
57656;BME280;43482;53.334;6.744;2022-09-09T11:17:11;100758.50;;;22.63;74.69
57656;BME280;43482;53.334;6.744;2022-09-09T11:19:40;100765.72;;;21.60;75.77
57656;BME280;43482;53.334;6.744;2022-09-09T11:36:11;100762.91;;;24.04;65.50
57656;BME280;43482;53.334;6.744;2022-09-09T11:38:51;100756.72;;;22.57;68.79
57656;BME280;43482;53.334;6.744;2022-09-09T11:41:18;100745.13;;;23.51;69.23
57656;BME280;43482;53.334;6.744;2022-09-09T11:43:48;100749.19;;;24.22;66.91
57656;BME280;43482;53.334;6.744;2022-09-09T11:46:16;100766.13;;;24.06;68.40
57656;BME280;43482;53.334;6.744;2022-09-09T11:48:58;100767.63;;;24.14;67.65
57656;BME280;43482;53.334;6.744;2022-09-09T11:51:28;100769.03;;;23.88;66.57
57656;BME280;43482;53.334;6.744;2022-09-09T11:53:57;100771.88;;;23.81;67.50
57656;BME280;43482;53.334;6.744;2022-09-09T11:56:42;100751.75;;;23.19;68.39
57656;BME280;43482;53.334;6.744;2022-09-09T11:59:26;100757.41;;;23.47;66.59
57656;BME280;43482;53.334;6.744;2022-09-09T12:01:59;100750.59;;;23.96;65.65
57656;BME280;43482;53.334;6.744;2022-09-09T12:04:33;100759.00;;;25.13;61.86
57656;BME280;43482;53.334;6.744;2022-09-09T12:07:03;100746.97;;;24.48;62.59
57656;BME280;43482;53.334;6.744;2022-09-09T12:19:41;100723.63;;;25.15;60.66
57656;BME280;43482;53.334;6.744;2022-09-09T12:22:32;100730.09;;;26.02;58.88
57656;BME280;43482;53.334;6.744;2022-09-09T12:28:04;100743.31;;;23.68;63.65
57656;BME280;43482;53.334;6.744;2022-09-09T12:31:22;100731.88;;;22.01;69.93
57656;BME280;43482;53.334;6.744;2022-09-09T12:33:21;100734.66;;;21.64;72.39
57656;BME280;43482;53.334;6.744;2022-09-09T12:35:54;100736.59;;;21.20;74.21
57656;BME280;43482;53.334;6.744;2022-09-09T12:38:31;100741.56;;;20.73;76.84
57656;BME280;43482;53.334;6.744;2022-09-09T12:40:58;100725.06;;;20.94;76.62
57656;BME280;43482;53.334;6.744;2022-09-09T12:43:25;100741.63;;;21.10;77.60
57656;BME280;43482;53.334;6.744;2022-09-09T12:45:57;100739.78;;;21.84;74.65
57656;BME280;43482;53.334;6.744;2022-09-09T12:48:45;100731.22;;;22.59;69.91
57656;BME280;43482;53.334;6.744;2022-09-09T12:51:31;100734.75;;;23.19;66.69
57656;BME280;43482;53.334;6.744;2022-09-09T12:54:01;100732.91;;;24.63;62.97
57656;BME280;43482;53.334;6.744;2022-09-09T12:56:32;100729.84;;;23.16;65.28
57656;BME280;43482;53.334;6.744;2022-09-09T12:58:58;100729.75;;;22.22;69.16
57656;BME280;43482;53.334;6.744;2022-09-09T13:01:32;100725.34;;;21.67;71.81
57656;BME280;43482;53.334;6.744;2022-09-09T13:03:58;100732.63;;;21.04;79.77
57656;BME280;43482;53.334;6.744;2022-09-09T13:06:31;100734.28;;;20.55;86.72
57656;BME280;43482;53.334;6.744;2022-09-09T13:08:59;100715.59;;;20.17;89.16
57656;BME280;43482;53.334;6.744;2022-09-09T13:13:56;100696.84;;;20.17;89.62
57656;BME280;43482;53.334;6.744;2022-09-09T13:16:34;100697.59;;;20.24;86.96
57656;BME280;43482;53.334;6.744;2022-09-09T13:19:02;100718.69;;;20.70;83.44
57656;BME280;43482;53.334;6.744;2022-09-09T13:21:39;100690.56;;;22.14;78.69
57656;BME280;43482;53.334;6.744;2022-09-09T13:24:06;100680.09;;;23.59;74.47
57656;BME280;43482;53.334;6.744;2022-09-09T13:27:40;100704.56;;;24.32;72.15
57656;BME280;43482;53.334;6.744;2022-09-09T13:29:39;100702.31;;;23.78;69.88
57656;BME280;43482;53.334;6.744;2022-09-09T13:32:12;100679.31;;;23.47;71.40
57656;BME280;43482;53.334;6.744;2022-09-09T13:34:57;100695.75;;;24.19;69.98
57656;BME280;43482;53.334;6.744;2022-09-09T13:37:31;100691.38;;;23.85;68.78
57656;BME280;43482;53.334;6.744;2022-09-09T13:39:58;100681.19;;;22.82;71.03
57656;BME280;43482;53.334;6.744;2022-09-09T13:42:29;100681.81;;;22.18;72.83
57656;BME280;43482;53.334;6.744;2022-09-09T13:44:56;100693.66;;;21.99;73.13
57656;BME280;43482;53.334;6.744;2022-09-09T13:47:30;100674.34;;;21.78;73.96
57656;BME280;43482;53.334;6.744;2022-09-09T13:49:56;100680.59;;;21.24;75.96
57656;BME280;43482;53.334;6.744;2022-09-09T13:52:22;100693.66;;;21.02;74.55
57656;BME280;43482;53.334;6.744;2022-09-09T13:54:49;100692.44;;;20.98;75.41
57656;BME280;43482;53.334;6.744;2022-09-09T13:57:17;100697.53;;;21.24;76.45
57656;BME280;43482;53.334;6.744;2022-09-09T13:59:43;100697.81;;;21.34;74.96
57656;BME280;43482;53.334;6.744;2022-09-09T14:02:09;100703.84;;;21.11;73.67
57656;BME280;43482;53.334;6.744;2022-09-09T14:04:34;100689.78;;;21.34;75.74
57656;BME280;43482;53.334;6.744;2022-09-09T14:07:00;100701.31;;;21.35;73.33
57656;BME280;43482;53.334;6.744;2022-09-09T14:09:26;100702.25;;;20.85;75.02
57656;BME280;43482;53.334;6.744;2022-09-09T14:11:51;100701.97;;;20.93;76.37
57656;BME280;43482;53.334;6.744;2022-09-09T14:14:16;100701.34;;;20.73;77.12
57656;BME280;43482;53.334;6.744;2022-09-09T14:16:42;100689.25;;;20.64;75.31
57656;BME280;43482;53.334;6.744;2022-09-09T14:19:08;100707.16;;;20.38;77.16
57656;BME280;43482;53.334;6.744;2022-09-09T14:21:34;100711.25;;;20.16;78.72
57656;BME280;43482;53.334;6.744;2022-09-09T14:24:00;100715.22;;;19.75;86.17
57656;BME280;43482;53.334;6.744;2022-09-09T14:26:25;100709.91;;;18.83;94.15
57656;BME280;43482;53.334;6.744;2022-09-09T14:28:51;100719.97;;;18.61;98.88
57656;BME280;43482;53.334;6.744;2022-09-09T14:31:17;100718.75;;;18.43;98.30
57656;BME280;43482;53.334;6.744;2022-09-09T14:33:43;100715.44;;;18.41;98.98
57656;BME280;43482;53.334;6.744;2022-09-09T14:36:09;100721.41;;;18.50;99.05